createdAt,value
2024-04-25T00:03:50.471Z,100057.66
2024-04-25T00:08:48.472Z,100041.78
2024-04-25T00:13:43.732Z,100044.84
2024-04-25T00:18:39.009Z,100028.44
2024-04-25T00:23:34.328Z,100055.16
2024-04-25T00:28:32.455Z,100061.63
2024-04-25T00:33:27.831Z,99929.47
2024-04-25T00:38:23.247Z,100028.56
2024-04-25T00:43:19.192Z,100008.44
2024-04-25T00:48:17.839Z,100032.81
2024-04-25T00:53:13.731Z,100019.88
2024-04-25T00:58:09.490Z,99915.00
2024-04-25T01:03:06.298Z,100037.75
2024-04-25T01:08:04.552Z,100027.44
2024-04-25T01:12:59.859Z,99996.66
2024-04-25T01:17:56.401Z,100034.34
2024-04-25T01:22:55.399Z,100037.91
2024-04-25T01:27:54.280Z,100041.50
2024-04-25T01:32:50.093Z,100033.66
2024-04-25T01:37:45.602Z,100029.50
2024-04-25T01:42:40.882Z,99930.13
2024-04-25T01:47:41.669Z,100014.66
2024-04-25T01:52:36.999Z,100002.25
2024-04-25T01:57:32.308Z,99984.78
2024-04-25T02:02:27.629Z,99983.53
2024-04-25T02:07:25.635Z,100022.22
2024-04-25T02:12:21.836Z,100015.06
2024-04-25T02:17:17.576Z,99984.91
2024-04-25T02:22:28.596Z,100008.69
2024-04-25T02:27:26.574Z,100002.09
2024-04-25T02:32:21.927Z,99981.84
2024-04-25T02:37:17.303Z,100027.72
2024-04-25T02:42:12.666Z,100040.28
2024-04-25T02:47:10.731Z,100038.75
2024-04-25T02:52:06.085Z,100040.69
2024-04-25T02:57:01.470Z,100027.75
2024-04-25T03:01:56.969Z,100027.91
2024-04-25T03:06:54.989Z,99983.44
2024-04-25T03:11:50.703Z,100008.22
2024-04-25T03:16:46.046Z,100056.69
2024-04-25T03:21:41.367Z,100059.69
2024-04-25T03:26:39.361Z,100032.72
2024-04-25T03:31:36.412Z,100020.88
2024-04-25T03:36:31.803Z,100053.91
2024-04-25T03:41:29.172Z,100054.88
2024-04-25T03:46:27.146Z,99946.13
2024-04-25T03:51:25.333Z,100002.16
2024-04-25T03:56:20.668Z,100058.34
2024-04-25T04:01:17.403Z,100060.97
2024-04-25T04:06:21.242Z,99994.88
2024-04-25T04:11:16.618Z,100063.44
2024-04-25T04:16:12.820Z,100051.72
2024-04-25T04:21:10.580Z,100029.56
2024-04-25T04:26:10.588Z,100023.22
2024-04-25T04:31:05.952Z,100043.47
2024-04-25T04:36:01.211Z,100064.41
2024-04-25T04:40:56.662Z,100030.78
2024-04-25T04:45:57.237Z,100040.44
2024-04-25T04:50:52.524Z,100083.56
2024-04-25T04:55:48.086Z,100045.25
2024-04-25T05:00:43.349Z,100048.13
2024-04-25T05:05:41.411Z,100043.16
2024-04-25T05:10:36.903Z,100056.50
2024-04-25T05:15:32.379Z,100071.88
2024-04-25T05:20:27.771Z,100056.31
2024-04-25T05:25:27.112Z,100099.81
2024-04-25T05:30:23.386Z,100094.28
2024-04-25T05:35:19.028Z,100084.78
2024-04-25T05:40:15.028Z,100086.00
2024-04-25T05:45:13.283Z,100097.44
2024-04-25T05:50:09.911Z,100107.78
2024-04-25T05:55:06.172Z,100110.78
2024-04-25T06:00:01.600Z,100095.41
2024-04-25T06:05:05.037Z,100116.72
2024-04-25T06:10:00.568Z,100088.53
2024-04-25T06:14:55.974Z,100041.34
2024-04-25T06:19:51.240Z,100090.91
2024-04-25T06:24:49.221Z,100113.34
2024-04-25T06:29:44.591Z,100124.22
2024-04-25T06:34:39.956Z,100091.34
2024-04-25T06:39:38.203Z,100099.44
2024-04-25T06:44:40.669Z,100089.38
2024-04-25T06:49:38.940Z,100118.41
2024-04-25T06:54:34.269Z,100080.44
2024-04-25T06:59:29.633Z,100107.09
2024-04-25T07:04:30.659Z,100082.31
2024-04-25T07:09:26.162Z,100125.47
2024-04-25T07:14:21.551Z,100035.41
2024-04-25T07:19:19.206Z,100109.81
2024-04-25T07:24:17.344Z,100101.41
2024-04-25T07:29:12.789Z,100119.97
2024-04-25T07:34:08.148Z,100124.78
2024-04-25T07:39:03.552Z,100095.78
2024-04-25T07:44:01.659Z,100095.78
2024-04-25T07:48:57.608Z,100091.22
2024-04-25T07:53:55.295Z,100105.63
2024-04-25T07:58:51.232Z,100062.91
2024-04-25T08:03:49.389Z,100019.50
2024-04-25T08:08:45.406Z,100111.16
2024-04-25T08:13:40.859Z,100111.03
2024-04-25T08:18:37.921Z,100117.13
2024-04-25T08:23:36.258Z,100137.41
2024-04-25T08:28:31.671Z,100082.88
2024-04-25T08:33:27.238Z,100126.59
2024-04-25T08:38:23.064Z,100121.34
2024-04-25T08:43:21.351Z,100078.88
2024-04-25T08:48:18.306Z,99960.19
2024-04-25T08:53:14.467Z,100114.03
2024-04-25T08:58:09.870Z,100115.00
2024-04-25T09:03:12.047Z,100086.81
2024-04-25T09:08:08.797Z,100094.53
2024-04-25T09:13:04.147Z,100080.38
2024-04-25T09:18:01.525Z,100074.19
2024-04-25T09:23:00.964Z,100119.34
2024-04-25T09:27:59.543Z,100097.16
2024-04-25T09:32:55.148Z,100095.50
2024-04-25T09:37:51.319Z,100125.91
2024-04-25T09:42:50.236Z,100087.88
2024-04-25T09:47:52.051Z,100119.56
2024-04-25T09:52:53.714Z,100109.88
2024-04-25T09:57:57.693Z,100073.94
2024-04-25T10:02:54.181Z,100100.28
2024-04-25T10:07:51.512Z,100084.53
2024-04-25T10:12:55.752Z,100087.59
2024-04-25T10:17:54.939Z,100109.50
2024-04-25T10:22:59.308Z,100094.66
2024-04-25T10:28:02.725Z,100117.38
2024-04-25T10:32:58.422Z,100112.94
2024-04-25T10:37:54.589Z,99986.19
2024-04-25T10:43:06.053Z,100073.28
2024-04-25T10:48:02.207Z,100121.41
2024-04-25T10:52:57.996Z,100111.28
2024-04-25T10:57:53.935Z,100108.25
2024-04-25T11:02:55.492Z,100110.88
2024-04-25T11:07:53.624Z,100126.03
2024-04-25T11:12:49.028Z,100111.44
2024-04-25T11:17:56.123Z,100123.47
2024-04-25T11:23:11.686Z,100083.53
2024-04-25T11:28:10.045Z,100110.22
2024-04-25T11:33:06.168Z,100147.69
2024-04-25T11:38:04.277Z,100135.44
2024-04-25T11:43:00.270Z,100138.47
2024-04-25T11:47:55.864Z,100138.22
2024-04-25T11:53:00.542Z,100128.72
2024-04-25T11:58:01.365Z,100144.88
2024-04-25T12:03:19.816Z,100168.13
2024-04-25T12:08:15.900Z,100189.28
2024-04-25T12:13:14.274Z,100144.28
2024-04-25T12:18:10.188Z,100137.94
2024-04-25T12:23:05.715Z,100151.19
2024-04-25T12:28:01.307Z,100125.03
2024-04-25T12:33:05.660Z,100151.91
2024-04-25T12:38:01.245Z,100116.50
2024-04-25T12:43:03.541Z,100151.22
2024-04-25T12:48:06.309Z,100118.78
2024-04-25T12:53:05.103Z,100120.03
2024-04-25T12:58:03.526Z,100156.84
2024-04-25T13:02:59.019Z,100126.91
2024-04-25T13:07:57.110Z,100107.22
2024-04-25T13:12:52.772Z,100127.91
2024-04-25T13:17:59.686Z,100123.75
2024-04-25T13:22:57.826Z,100126.09
2024-04-25T13:27:53.298Z,100031.06
2024-04-25T13:32:52.112Z,100095.50
2024-04-25T13:37:48.052Z,100097.72
2024-04-25T13:42:46.424Z,100102.59
2024-04-25T13:47:42.062Z,100114.16
2024-04-25T13:52:37.565Z,100111.22
2024-04-25T13:57:34.585Z,100092.78
2024-04-25T14:02:36.436Z,100088.34
2024-04-25T14:07:31.823Z,100115.63
2024-04-25T14:12:29.678Z,100145.69
2024-04-25T14:17:25.533Z,100159.31
2024-04-25T14:22:23.908Z,100166.31
2024-04-25T14:27:35.001Z,100168.91
2024-04-25T14:32:36.280Z,100141.34
2024-04-25T14:37:34.709Z,100137.91
2024-04-25T14:42:30.081Z,100132.00
2024-04-25T14:47:25.477Z,100066.44
2024-04-25T14:52:20.822Z,100119.19
2024-04-25T14:57:19.047Z,100141.91
2024-04-25T15:02:14.493Z,100130.50
2024-04-25T15:07:13.822Z,100054.31
2024-04-25T15:12:10.919Z,100106.50
2024-04-25T15:17:10.243Z,100113.56
2024-04-25T15:22:05.783Z,100097.16
2024-04-25T15:27:07.025Z,100057.91
2024-04-25T15:32:05.500Z,100110.00
2024-04-25T15:37:03.584Z,100055.88
2024-04-25T15:41:59.158Z,100064.41
2024-04-25T15:46:55.438Z,100123.09
2024-04-25T15:51:50.768Z,100088.63
2024-04-25T15:56:50.930Z,100083.66
2024-04-25T16:01:48.090Z,100069.22
2024-04-25T16:06:43.614Z,100090.72
2024-04-25T16:11:46.545Z,100095.22
2024-04-25T16:16:44.888Z,100094.97
2024-04-25T16:21:41.321Z,100155.34
2024-04-25T16:26:36.910Z,100168.25
2024-04-25T16:31:32.441Z,100149.66
2024-04-25T16:36:33.053Z,100168.91
2024-04-25T16:41:31.674Z,100081.00
2024-04-25T16:46:27.043Z,100214.75
2024-04-25T16:51:25.318Z,100225.41
2024-04-25T16:56:26.328Z,100223.97
2024-04-25T17:01:24.111Z,100134.66
2024-04-25T17:06:19.541Z,100219.66
2024-04-25T17:11:23.229Z,100219.66
2024-04-25T17:16:21.445Z,100254.56
2024-04-25T17:21:16.880Z,100242.75
2024-04-25T17:26:16.186Z,100219.00
2024-04-25T17:31:13.509Z,100264.22
2024-04-25T17:36:15.139Z,100237.44
2024-04-25T17:41:13.497Z,100256.97
2024-04-25T17:46:15.934Z,100268.56
2024-04-25T17:51:14.646Z,100309.88
2024-04-25T17:56:14.965Z,100324.41
2024-04-25T18:01:17.838Z,100333.78
2024-04-25T18:06:15.995Z,100317.81
2024-04-25T18:11:11.828Z,100348.91
2024-04-25T18:16:07.564Z,100326.75
2024-04-25T18:21:02.952Z,100326.72
2024-04-25T18:26:01.267Z,100276.81
2024-04-25T18:31:00.463Z,100310.56
2024-04-25T18:35:55.940Z,100318.91
2024-04-25T18:40:58.611Z,100330.66
2024-04-25T18:46:04.094Z,100337.91
2024-04-25T18:50:59.566Z,100336.28
2024-04-25T18:55:56.284Z,100339.47
2024-04-25T19:00:51.802Z,100376.09
2024-04-25T19:05:49.995Z,100379.44
2024-04-25T19:10:45.554Z,100340.50
2024-04-25T19:15:41.159Z,100309.69
2024-04-25T19:20:38.285Z,100337.59
2024-04-25T19:25:37.535Z,100396.81
2024-04-25T19:30:32.931Z,100391.94
2024-04-25T19:35:31.896Z,100399.94
2024-04-25T19:40:28.582Z,100378.94
2024-04-25T19:45:26.695Z,100387.81
2024-04-25T19:50:22.371Z,100411.44
2024-04-25T19:55:18.370Z,100398.66
2024-04-25T20:00:14.705Z,100402.22
2024-04-25T20:05:13.606Z,100452.53
2024-04-25T20:10:09.518Z,100423.19
2024-04-25T20:15:05.281Z,100419.31
2024-04-25T20:20:16.702Z,100365.94
2024-04-25T20:25:17.371Z,100436.38
2024-04-25T20:30:13.597Z,100401.75
2024-04-25T20:35:12.691Z,100274.31
2024-04-25T20:40:09.774Z,100385.50
2024-04-25T20:45:11.244Z,100368.66
2024-04-25T20:50:06.847Z,100419.66
2024-04-25T20:55:02.294Z,100372.78
2024-04-25T20:59:59.844Z,100423.94
2024-04-25T21:04:57.982Z,100426.06
2024-04-25T21:09:53.320Z,100381.72
2024-04-25T21:14:48.690Z,100418.38
2024-04-25T21:19:44.509Z,100440.31
2024-04-25T21:24:43.632Z,100419.34
2024-04-25T21:29:40.651Z,100440.94
2024-04-25T21:34:36.059Z,100441.91
2024-04-25T21:39:31.377Z,100304.22
2024-04-25T21:44:31.199Z,100454.69
2024-04-25T21:49:26.720Z,100427.41
2024-04-25T21:54:22.203Z,100416.97
2024-04-25T21:59:17.796Z,100449.59
2024-04-25T22:04:15.808Z,100381.63
2024-04-25T22:09:11.103Z,100446.41
2024-04-25T22:14:06.893Z,100434.78
2024-04-25T22:19:02.346Z,100461.00
2024-04-25T22:24:00.598Z,100456.50
2024-04-25T22:28:56.051Z,100446.88
2024-04-25T22:33:51.458Z,100420.75
2024-04-25T22:38:46.846Z,100435.00
2024-04-25T22:43:45.005Z,100437.84
2024-04-25T22:48:40.500Z,100334.47
2024-04-25T22:53:37.044Z,100438.53
2024-04-25T22:58:32.535Z,100462.41
2024-04-25T23:03:31.881Z,100371.56
2024-04-25T23:08:30.883Z,100440.91
2024-04-25T23:13:26.520Z,100480.75
2024-04-25T23:18:24.892Z,100451.31
2024-04-25T23:23:23.002Z,100491.09
2024-04-25T23:28:18.426Z,100475.63
2024-04-25T23:33:14.114Z,100481.47
2024-04-25T23:38:09.584Z,100430.16
2024-04-25T23:43:07.939Z,100498.09
2024-04-25T23:48:05.438Z,100495.59
2024-04-25T23:53:00.957Z,100462.44
2024-04-25T23:57:56.361Z,100471.72
